• Join FlightAware (Why Join?)
  • Login
  • US Flag 
11:41AM EDT


 

Airport Tracker/Info


-or-


 

Live Flight TrackerFlight Track Log ✈ N588AC ✈ 26-Apr-2013 ✈ KBCB - KBKL

Flight Track Log - Related Links

Times and Time Zones

All times are in EDT time to prevent confusion due to time zone crossing. See the N588AC flight status page for this flight to view local times or setup timezone preferences in your user account.

Time Position Orientation Groundspeed Altitude Reporting Facility
EDT Latitude Longitude Course Direction KTS MPH feet Rate Location/Type
12:35PM 37.2075 -80.3356 338° Northwest 196 226 5,700  Level Washington Center
12:36PM 37.2514 -80.3303 North 167 192 9,200 2,400 Climbing Washington Center
12:37PM 37.2994 -80.3856 318° Northwest 154 177 10,600 1,560 Climbing Washington Center
12:38PM 37.3567 -80.4622 313° West 209 241 12,400 1,980 Climbing Washington Center
12:39PM 37.4142 -80.5392 313° West 270 311 14,600 2,340 Climbing Washington Center
12:40PM 37.2578 -80.4622 338° Northwest  Level FlightAware Approximate
12:40PM 37.4775 -80.6192 315° West 286 329 17,200  Level Washington Center
12:42PM 37.6178 -80.7972 315° West 303 349 20,900 1,560 Climbing Indianapolis Center
12:43PM 37.6733 -80.8689 314° West 297 342 22,600 1,620 Climbing Indianapolis Center
12:44PM 37.7478 -80.9064 338° Northwest 295 339 24,300 1,740 Climbing Indianapolis Center
12:45PM 37.8317 -80.9425 341° North 289 333 26,300 1,800 Climbing Indianapolis Center
12:46PM 37.9072 -80.9753 341° North 287 330 28,100 1,680 Climbing Indianapolis Center
12:47PM 37.9811 -81.0075 341° North 281 323 29,800 1,560 Climbing Indianapolis Center
12:48PM 38.0542 -81.0397 341° North 278 320 31,400 1,020 Climbing Indianapolis Center
12:49PM 38.1289 -81.0728 341° North 283 326 32,000 240 Climbing Indianapolis Center
12:50PM 38.2278 -81.1161 341° North 310 357 32,000  Level Indianapolis Center
12:51PM 38.3133 -81.1528 341° North 322 371 32,000  Level Indianapolis Center
12:52PM 38.3981 -81.1900 341° North 323 372 32,000  Level Indianapolis Center
12:53PM 38.4831 -81.2272 341° North 323 372 32,000  Level Indianapolis Center
12:54PM 38.5686 -81.2658 341° North 326 375 32,000  Level Indianapolis Center
12:55PM 38.6703 -81.3097 341° North 324 373 32,000  Level Indianapolis Center
12:56PM 38.7544 -81.3481 340° North 326 375 32,000  Level Indianapolis Center
12:57PM 38.8386 -81.3858 341° North 326 375 32,000  Level Indianapolis Center
12:58PM 38.9244 -81.4228 341° North 327 376 32,000  Level Indianapolis Center
01:00PM 39.0097 -81.4625 340° North 327 376 32,000  Level Indianapolis Center
01:01PM 39.1117 -81.5094 340° North 326 375 32,000  Level Indianapolis Center
01:02PM 39.1981 -81.5464 342° North 326 375 32,000  Level Indianapolis Center
01:03PM 39.2842 -81.5858 340° North 327 376 32,000 -420 Level Indianapolis Center
01:04PM 39.3694 -81.6242 341° North 326 375 31,200 -1,140 Descending Indianapolis Center
01:05PM 39.4528 -81.6628 340° North 320 368 29,700 -1,680 Descending Indianapolis Center
01:06PM 39.5375 -81.7019 340° North 321 369 27,800 -2,280 Descending Indianapolis Center
01:07PM 39.6356 -81.7453 341° North 312 359 25,000 -1,860 Descending Indianapolis Center
01:08PM 39.7108 -81.7806 340° North 316 364 24,000 -480 Descending Indianapolis Center
01:09PM 39.8019 -81.8228 340° North 343 395 24,000  Level Indianapolis Center
01:10PM 39.9081 -81.8717 341° North 344 396 24,000  Level Indianapolis Center
01:11PM 39.9997 -81.9131 341° North 345 397 24,000 -300 Level Indianapolis Center
01:12PM 40.0892 -81.9542 341° North 339 390 23,500 -720 Descending Indianapolis Center
01:13PM 40.1789 -81.9961 340° North 338 389 22,600 -1,140 Descending Indianapolis Center
01:14PM 40.2631 -82.0361 340° North 335 386 21,200 -1,560 Descending Indianapolis Center
01:15PM 40.3650 -82.0844 340° North 332 382 19,400 -1,680 Descending Indianapolis Center
01:16PM 40.4547 -82.1167 345° North 334 384 17,800 -1,320 Descending Indianapolis Center
01:17PM 40.5381 -82.0478 32° Northeast 354 407 16,700 -1,260 Descending Indianapolis Center
01:18PM 40.6119 -81.9742 37° Northeast 335 386 15,200 -1,620 Descending Indianapolis Center
01:19PM 40.6933 -81.8919 37° Northeast 319 367 13,300 -1,680 Descending Cleveland Center
01:20PM 40.7631 -81.8222 37° Northeast 319 367 11,700 -1,200 Descending Cleveland Center
01:21PM 40.8303 -81.7575 36° Northeast 314 361 11,000 -600 Descending Cleveland Center
01:22PM 40.8431 -81.7442 38° Northeast 300 345 11,000  Level Cleveland Center
01:23PM 40.9061 -81.6819 37° Northeast 273 314 11,000  Level Cleveland Center
01:23PM 40.9503 -81.6553 25° Northeast 273 314 11,000  Level Cleveland Center
01:24PM 40.9731 -81.6611 349° North 254 292 11,000  Level Cleveland Center
01:24PM 41.0208 -81.6619 359° North 246 283 11,000  Level Cleveland Center
01:25PM 41.0439 -81.6650 354° North 249 287 11,000 -720 Level Cleveland Center
01:25PM 41.0919 -81.6603 North 246 283 10,300 -1,200 Descending Cleveland Center
01:26PM 41.1189 -81.6608 359° North 264 304 9,800 -1,020 Descending Cleveland Center
01:26PM 41.1608 -81.6558 North 254 292 9,300 -1,020 Descending Cleveland Center
01:27PM 41.1878 -81.6536 North 241 277 8,800 -1,500 Descending Cleveland Center
01:27PM 41.2275 -81.6489 North 249 287 7,800 -1,740 Descending Cleveland Center
01:28PM 41.2525 -81.6464 North 242 278 7,100 -1,800 Descending Cleveland Center
01:28PM 41.2964 -81.6417 North 249 287 6,000 -1,920 Descending Cleveland Center
01:29PM 41.3256 -81.6394 North 261 300 5,200 -1,740 Descending Cleveland Center
01:29PM 41.3736 -81.6181 18° North 254 292 4,300 -1,200 Descending Cleveland Center
01:30PM 41.3906 -81.6100 20° North 253 291 4,000 -600 Descending Cleveland Center
01:30PM 41.4281 -81.5883 23° Northeast 249 287 3,700 -540 Descending Cleveland Center
01:31PM 41.4489 -81.5858 North 208 239 3,500 -840 Descending Cleveland Center
01:32PM 41.5011 -81.6033 346° North 162 186 2,600 -1,140 Descending Cleveland Center
01:33PM 41.5361 -81.6344 326° Northwest 131 151 1,300 -1,320 Descending Cleveland Center
01:35PM 41.5167 -81.6667 62° Northeast  Level FlightAware Approximate
01:42PM 41.5175 -81.6833 62° Northeast  Level Estimated